首页
METAR-TAF:

METAR-TAF

机场 :

Alamogordo / Holloman, 新墨西哥州, 美国

纬度: 32-51N, 经度: 106-06W, 海拔: 1248米

当前天气观测

该预报发布于13分钟前的01:58 UTC
风速9节,风向
温度 6°C
湿度 70%
气压 1017 hPa
能見度: 16.1公里
天空无云

METAR: KHMN 230158Z AUTO 01009KT 10SM CLR 06/01 A3003 RMK AO2 SLPNO T00640007 $

时间: 19:11 (02:11 UTC)

预报

该预报发布于1小时和11分钟前的01:00 UTC
预报有效从23日的 01点(UTC)到 24日的 07点(UTC)
风速12节,风向,有时为18节阵风
能见度10公里或以上
少量云层高于4000英尺
成为
从 23日的 05点(UTC)到 23日的 06点(UTC)
风速9节,风向
能见度10公里或以上
天空无云
成为
从 23日的 11点(UTC)到 23日的 12点(UTC)
风速12节,风向北转西北,有时为18节阵风
能见度10公里或以上
天空无云
成为
从 23日的 22点(UTC)到 23日的 23点(UTC)
风速6节,风向多变
能见度10公里或以上
天空无云

TAF: KHMN 230100Z 2301/2407 35012G18KT 9999 FEW040 QNH3001INS BECMG 2305/2306 35009KT 9999 SKC QNH3009INS BECMG 2311/2312 33012G18KT 9999 SKC QNH3013INS BECMG 2322/2323 VRB06KT 9999 SKC QNH3015INS TX15/2322Z TN01/2314Z

超过4000个机场的气象观测和天气预报(METAR&TAF报告)。

可查询的气象台以黄色和红色小点在地图上表示。

将鼠标移到小点上方,可查看气象台名称。

然后点击查看天气观测和预报。

如需切换地图:点击带黑十字的绿色按钮放大地图;点击带横线的绿色按钮缩小地图;或者点击绿色箭头查看邻近地区的地图。


METAR-TAF: